sensor_id;sensor_type;location;lat;lon;timestamp;P1;durP1;ratioP1;P2;durP2;ratioP2
46633;SDS011;32362;49.986;8.026;2023-06-01T00:11:38;3.10;;;1.73;;
46633;SDS011;32362;49.986;8.026;2023-06-01T00:38:18;1.67;;;1.50;;
46633;SDS011;32362;49.986;8.026;2023-06-01T01:05:00;1.98;;;1.67;;
46633;SDS011;32362;49.986;8.026;2023-06-01T01:31:41;3.80;;;1.60;;
46633;SDS011;32362;49.986;8.026;2023-06-01T01:58:24;3.17;;;1.40;;
46633;SDS011;32362;49.986;8.026;2023-06-01T02:25:06;2.40;;;1.70;;
46633;SDS011;32362;49.986;8.026;2023-06-01T02:51:47;6.15;;;1.50;;
46633;SDS011;32362;49.986;8.026;2023-06-01T03:18:37;3.67;;;2.00;;
46633;SDS011;32362;49.986;8.026;2023-06-01T03:45:18;3.33;;;1.70;;
46633;SDS011;32362;49.986;8.026;2023-06-01T04:12:01;7.75;;;2.00;;
46633;SDS011;32362;49.986;8.026;2023-06-01T04:38:44;4.07;;;1.65;;
46633;SDS011;32362;49.986;8.026;2023-06-01T05:05:24;4.90;;;2.13;;
46633;SDS011;32362;49.986;8.026;2023-06-01T05:32:06;3.20;;;1.70;;
46633;SDS011;32362;49.986;8.026;2023-06-01T05:58:48;6.20;;;2.10;;
46633;SDS011;32362;49.986;8.026;2023-06-01T06:25:33;6.78;;;1.70;;
46633;SDS011;32362;49.986;8.026;2023-06-01T06:52:13;2.37;;;1.37;;
46633;SDS011;32362;49.986;8.026;2023-06-01T07:18:54;3.70;;;1.40;;
46633;SDS011;32362;49.986;8.026;2023-06-01T07:45:36;2.55;;;1.27;;
46633;SDS011;32362;49.986;8.026;2023-06-01T08:12:16;1.80;;;1.20;;
46633;SDS011;32362;49.986;8.026;2023-06-01T08:38:57;2.53;;;1.38;;
46633;SDS011;32362;49.986;8.026;2023-06-01T09:05:38;1.97;;;1.20;;
46633;SDS011;32362;49.986;8.026;2023-06-01T09:32:19;1.73;;;1.25;;
46633;SDS011;32362;49.986;8.026;2023-06-01T09:59:01;1.45;;;1.17;;
46633;SDS011;32362;49.986;8.026;2023-06-01T10:25:44;1.40;;;1.02;;
46633;SDS011;32362;49.986;8.026;2023-06-01T10:52:35;2.10;;;1.17;;
46633;SDS011;32362;49.986;8.026;2023-06-01T11:19:22;2.33;;;1.27;;
46633;SDS011;32362;49.986;8.026;2023-06-01T11:46:06;1.73;;;1.20;;
46633;SDS011;32362;49.986;8.026;2023-06-01T12:12:48;1.80;;;1.05;;
46633;SDS011;32362;49.986;8.026;2023-06-01T12:39:35;2.03;;;1.40;;
46633;SDS011;32362;49.986;8.026;2023-06-01T13:06:16;2.90;;;1.30;;
46633;SDS011;32362;49.986;8.026;2023-06-01T13:32:57;2.83;;;1.60;;
46633;SDS011;32362;49.986;8.026;2023-06-01T13:59:38;3.80;;;1.33;;
46633;SDS011;32362;49.986;8.026;2023-06-01T14:26:19;5.35;;;2.05;;
46633;SDS011;32362;49.986;8.026;2023-06-01T14:52:59;3.47;;;2.40;;
46633;SDS011;32362;49.986;8.026;2023-06-01T15:19:40;5.00;;;3.40;;
46633;SDS011;32362;49.986;8.026;2023-06-01T15:46:20;4.53;;;3.90;;
46633;SDS011;32362;49.986;8.026;2023-06-01T16:13:01;6.80;;;4.43;;
46633;SDS011;32362;49.986;8.026;2023-06-01T16:39:42;10.17;;;5.70;;
46633;SDS011;32362;49.986;8.026;2023-06-01T17:06:22;8.73;;;7.63;;
46633;SDS011;32362;49.986;8.026;2023-06-01T17:33:03;11.30;;;9.63;;
46633;SDS011;32362;49.986;8.026;2023-06-01T17:59:44;11.33;;;8.27;;
46633;SDS011;32362;49.986;8.026;2023-06-01T18:26:24;8.35;;;6.57;;
46633;SDS011;32362;49.986;8.026;2023-06-01T18:53:06;6.70;;;5.50;;
46633;SDS011;32362;49.986;8.026;2023-06-01T19:19:47;9.10;;;4.35;;
46633;SDS011;32362;49.986;8.026;2023-06-01T19:46:28;5.88;;;4.10;;
46633;SDS011;32362;49.986;8.026;2023-06-01T20:13:08;7.68;;;3.80;;
46633;SDS011;32362;49.986;8.026;2023-06-01T20:39:49;4.30;;;3.78;;
46633;SDS011;32362;49.986;8.026;2023-06-01T21:06:31;7.45;;;4.78;;
46633;SDS011;32362;49.986;8.026;2023-06-01T21:33:12;6.43;;;4.70;;
46633;SDS011;32362;49.986;8.026;2023-06-01T21:59:53;7.70;;;5.45;;
46633;SDS011;32362;49.986;8.026;2023-06-01T22:26:34;6.18;;;4.65;;
46633;SDS011;32362;49.986;8.026;2023-06-01T22:53:14;8.18;;;4.30;;
46633;SDS011;32362;49.986;8.026;2023-06-01T23:19:55;6.55;;;4.30;;
46633;SDS011;32362;49.986;8.026;2023-06-01T23:46:36;5.05;;;3.42;;
